Zprávy METAR z letišť v České republice

LKPR - Praha Ruzyně, Česká republika
Vzdálenost od této stanice: JV 30km
Aktualizováno: 18.12.2018 14:30
 
Teplota vzduchu: 5°C
Chlad větru: 3°C
Vítr: V 7 km/h
Rosný bod: 1°C
Vlhkost vzduchu: 76%
Tlak vzduchu: 1025 hPa
Oblačnost: oblačno
Viditelnost: 10 km
Detaily oblačnosti: skoro jasno 518 m
oblačno 1463 m
2018/12/18 13:30 LKPR 181330Z 10004KT 9999 FEW017 SCT048 05/01 Q1025 NOSIG
LKTB - Brno Tuřany, Česká republika
Vzdálenost od této stanice: VJV 234km
Aktualizováno: 18.12.2018 14:30
 
Teplota vzduchu: 2°C
Chlad větru: 0°C
Vítr: JV 7 km/h
Rosný bod: 0°C
Vlhkost vzduchu: 87%
Tlak vzduchu: 1027 hPa
Stav počasí: opar
Oblačnost: skoro zataženo
Viditelnost: 5 km
Detaily oblačnosti: skoro zataženo 640 m
2018/12/18 13:30 LKTB 181330Z 13004KT 5000 BR BKN021 02/00 Q1027 NOSIG
 
LKKV - Karlovy Vary, Česká republika
Vzdálenost od této stanice: Z 72km
Aktualizováno: 18.12.2018 14:30
 
Teplota vzduchu: 2°C
Vítr: proměnlivý 4 km/h
Rosný bod: 1°C
Vlhkost vzduchu: 93%
Tlak vzduchu: 1024 hPa
Oblačnost: skoro zataženo
Viditelnost: 10 km
Detaily oblačnosti: oblačno 244 m
skoro zataženo 335 m
2018/12/18 13:30 LKKV 181330Z VRB02KT 9999 SCT008 BKN011 02/01 Q1024 R29/29//95
LKMT - Ostrava Mošnov, Česká republika
Vzdálenost od této stanice: VJV 306km
Aktualizováno: 18.12.2018 14:30
 
Teplota vzduchu: 2°C
Chlad větru: -1°C
Vítr: ZJZ 9 km/h
Rosný bod: -1°C
Vlhkost vzduchu: 81%
Tlak vzduchu: 1027 hPa
Stav počasí: opar
Oblačnost: skoro zataženo
Viditelnost: 5 km
Detaily oblačnosti: skoro zataženo 1341 m
2018/12/18 13:30 LKMT 181330Z 24005KT 5000 BR BKN044 02/M01 Q1027 NOSIG
 
LKPD - Pardubice, Česká republika
Vzdálenost od této stanice: VJV 132km
Aktualizováno: 18.12.2018 14:00
 
Teplota vzduchu: 3°C
Vítr: JJV 2 km/h
Rosný bod: 2°C
Vlhkost vzduchu: 93%
Tlak vzduchu: 1027 hPa
Oblačnost: zataženo
Viditelnost: 10 km
Detaily oblačnosti: oblačno 396 m
zataženo 579 m
2018/12/18 13:00 LKPD 181300Z 15001KT 9999 SCT013 OVC019 03/02 Q1027 NOSIG
LKKB - Praha Kbely, Česká republika
Vzdálenost od této stanice: VJV 46km
Aktualizováno: 18.12.2018 14:00
 
Teplota vzduchu: 4°C
Chlad větru: 2°C
Vítr: SV 7 km/h
Rosný bod: 2°C
Vlhkost vzduchu: 87%
Tlak vzduchu: 1026 hPa
Oblačnost: skoro zataženo
Viditelnost: 10 km
Detaily oblačnosti: skoro jasno 914 m
skoro zataženo 1524 m
2018/12/18 13:00 LKKB 181300Z 05004KT 9999 FEW030 BKN050 04/02 Q1026 NOSIG
 
LKCV - Čáslav, Česká republika
Vzdálenost od této stanice: VJV 110km
Aktualizováno: 18.12.2018 14:00
 
Teplota vzduchu: 2°C
Vítr: JV 4 km/h
Rosný bod: 2°C
Vlhkost vzduchu: 100%
Tlak vzduchu: 1027 hPa
Oblačnost: zataženo
Viditelnost: 10 km
Detaily oblačnosti: zataženo 518 m
2018/12/18 13:00 LKCV 181300Z 13002KT 9999 OVC017 02/02 Q1027 NOSIG
LKNA - Náměšť n. Osl., Česká republika
Vzdálenost od této stanice: JV 200km
Aktualizováno: 18.12.2018 14:00
 
Teplota vzduchu: 2°C
Vítr: proměnlivý 4 km/h
Rosný bod: 0°C
Vlhkost vzduchu: 87%
Tlak vzduchu: 1026 hPa
Oblačnost: skoro zataženo
Viditelnost: 10 km
Detaily oblačnosti: skoro zataženo 518 m
skoro zataženo 1128 m
2018/12/18 13:00 LKNA 181300Z VRB02KT 9999 BKN017 BKN037 02/00 Q1026 NOSIG
 
LKLN - Plzeň Líně, Česká republika
Vzdálenost od této stanice: JZ 80km
Aktualizováno: 18.12.2018 14:00
 
Teplota vzduchu: 4°C
Chlad větru: 2°C
Vítr: JZ 9 km/h
Rosný bod: 1°C
Vlhkost vzduchu: 81%
Tlak vzduchu: 1026 hPa
Oblačnost: zataženo
Viditelnost: 10 km
Detaily oblačnosti: zataženo 457 m
2018/12/18 13:00 LKLN 181300Z AUTO 22005KT 9999 OVC015 04/01 Q1026
LKVO - Vodochody, Česká republika
Vzdálenost od této stanice: V 34km
Aktualizováno: 18.12.2018 14:00
 
Teplota vzduchu: 4°C
Chlad větru: 2°C
Vítr: V 9 km/h
Rosný bod: 3°C
Vlhkost vzduchu: 93%
Tlak vzduchu: 1026 hPa
Oblačnost: skoro jasno
Viditelnost: 6 km
Detaily oblačnosti: skoro jasno 823 m
2018/12/18 13:00 LKVO 181300Z 10005KT 6000 FEW027 04/03 Q1026

Metar display script od Saratoga-Weather.org
upravil a přeložil Miloš Jiřík